Time;durP1;ratioP1;P1;durP2;ratioP2;P2;SDS_P1;SDS_P2;PMS_P1;PMS_P2;Temp;Humidity;BMP_temperature;BMP_pressure;BME280_temperature;BME280_humidity;BME280_pressure;Samples;Min_cycle;Max_cycle;Signal;HPM_P1;HPM_P2
2023/09/28 00:00:54;;;;;;;5.47;3.78;;;;;;;18.17;100.00;100583.59;691508;28;4343;-63
2023/09/28 00:01:18;;;;;;;4.75;3.53;;;;;;;18.15;100.00;100590.72;691843;28;1733;-63
2023/09/28 00:01:40;;;;;;;5.18;3.70;;;;;;;18.10;100.00;100588.25;693106;28;1022;-63
2023/09/28 00:02:00;;;;;;;4.90;3.75;;;;;;;18.10;100.00;100584.75;692819;28;1289;-63
2023/09/28 00:02:22;;;;;;;5.43;3.80;;;;;;;18.14;100.00;100581.91;686940;28;2236;-63
2023/09/28 00:02:43;;;;;;;5.18;3.45;;;;;;;18.18;100.00;100585.31;689421;28;1259;-62
2023/09/28 00:03:04;;;;;;;5.57;3.58;;;;;;;18.30;100.00;100578.69;688504;28;2581;-63
2023/09/28 00:03:24;;;;;;;4.93;3.53;;;;;;;18.33;100.00;100578.56;689625;28;932;-63
2023/09/28 00:03:45;;;;;;;4.95;3.35;;;;;;;18.39;100.00;100583.63;688925;28;4822;-63
2023/09/28 00:04:06;;;;;;;5.20;3.50;;;;;;;18.35;100.00;100579.38;689361;28;2213;-63
2023/09/28 00:04:27;;;;;;;5.00;3.40;;;;;;;18.28;100.00;100578.75;691930;28;929;-63
2023/09/28 00:04:48;;;;;;;5.07;3.42;;;;;;;18.27;100.00;100576.16;692605;28;844;-63
2023/09/28 00:05:12;;;;;;;6.28;3.67;;;;;;;18.29;100.00;100583.13;690403;28;1819;-63
2023/09/28 00:05:34;;;;;;;6.05;3.38;;;;;;;18.26;100.00;100580.56;691756;28;1111;-63
2023/09/28 00:05:54;;;;;;;5.03;3.30;;;;;;;18.23;100.00;100580.69;692391;28;1333;-63
2023/09/28 00:06:15;;;;;;;5.38;3.40;;;;;;;18.21;100.00;100579.91;691766;28;1881;-63
2023/09/28 00:06:36;;;;;;;5.10;3.40;;;;;;;18.15;100.00;100577.47;691741;28;809;-63
2023/09/28 00:06:56;;;;;;;5.27;3.60;;;;;;;18.20;100.00;100581.66;692004;28;4505;-63
2023/09/28 00:07:16;;;;;;;5.13;3.63;;;;;;;18.18;100.00;100580.88;688352;28;2005;-63
2023/09/28 00:07:37;;;;;;;5.10;3.80;;;;;;;18.16;100.00;100593.28;689159;28;1409;-63
2023/09/28 00:07:59;;;;;;;4.97;3.80;;;;;;;18.13;100.00;100584.63;689749;28;769;-62
2023/09/28 00:08:19;;;;;;;6.93;3.58;;;;;;;18.10;100.00;100588.25;689060;28;2299;-63
2023/09/28 00:08:39;;;;;;;6.73;3.67;;;;;;;18.08;100.00;100589.22;689221;28;848;-63
2023/09/28 00:09:00;;;;;;;4.50;3.57;;;;;;;18.05;100.00;100584.91;690080;28;1180;-63
2023/09/28 00:09:20;;;;;;;5.20;3.50;;;;;;;18.03;100.00;100574.38;690849;28;1912;-63
2023/09/28 00:09:40;;;;;;;5.90;3.58;;;;;;;18.02;100.00;100588.50;692252;28;4367;-64
2023/09/28 00:10:03;;;;;;;6.20;3.60;;;;;;;18.04;100.00;100584.03;688471;28;820;-63
2023/09/28 00:10:23;;;;;;;4.82;3.60;;;;;;;18.06;100.00;100585.78;687463;28;1274;-63
2023/09/28 00:10:44;;;;;;;4.53;3.50;;;;;;;18.07;100.00;100583.06;687560;28;1279;-63
2023/09/28 00:11:05;;;;;;;4.77;3.40;;;;;;;18.13;100.00;100574.91;687626;28;1794;-64
2023/09/28 00:11:25;;;;;;;5.15;3.65;;;;;;;18.20;100.00;100579.03;688085;28;883;-63
2023/09/28 00:11:46;;;;;;;5.53;3.80;;;;;;;18.18;100.00;100574.75;688273;28;758;-63
2023/09/28 00:12:06;;;;;;;5.78;3.72;;;;;;;18.15;100.00;100575.72;690229;28;1736;-63
2023/09/28 00:12:26;;;;;;;5.00;3.60;;;;;;;18.18;100.00;100575.59;692657;28;1450;-63
2023/09/28 00:12:49;;;;;;;5.10;3.57;;;;;;;18.16;100.00;100576.56;692076;28;4436;-63
2023/09/28 00:13:09;;;;;;;5.00;3.42;;;;;;;18.18;100.00;100580.03;690912;28;2406;-63
2023/09/28 00:13:30;;;;;;;4.60;3.40;;;;;;;18.19;100.00;100577.31;692201;28;861;-63
2023/09/28 00:13:50;;;;;;;4.30;3.42;;;;;;;18.19;100.00;100581.72;692750;28;1267;-63
2023/09/28 00:14:11;;;;;;;4.10;3.10;;;;;;;18.15;100.00;100588.94;691307;28;2427;-63
2023/09/28 00:14:31;;;;;;;4.97;3.40;;;;;;;18.13;100.00;100593.41;691399;28;1075;-63
2023/09/28 00:14:52;;;;;;;4.90;3.40;;;;;;;18.10;100.00;100593.53;688923;28;3863;-63
2023/09/28 00:15:12;;;;;;;4.95;3.40;;;;;;;18.07;100.00;100593.66;689655;28;2109;-63
2023/09/28 00:15:33;;;;;;;5.18;3.53;;;;;;;18.04;100.00;100596.38;690853;28;1369;-63
2023/09/28 00:15:54;;;;;;;4.83;3.40;;;;;;;18.02;100.00;100596.44;691547;28;4404;-63
2023/09/28 00:16:14;;;;;;;5.75;3.60;;;;;;;18.01;100.00;100600.03;689417;28;2451;-63
2023/09/28 00:16:37;;;;;;;4.90;3.33;;;;;;;18.08;100.00;100602.44;693108;28;975;-63
2023/09/28 00:16:57;;;;;;;4.97;3.53;;;;;;;18.15;100.00;100601.28;692526;28;932;-62
2023/09/28 00:17:18;;;;;;;4.38;3.40;;;;;;;18.12;100.00;100596.97;690220;28;1797;-63
2023/09/28 00:17:39;;;;;;;4.60;3.30;;;;;;;18.10;100.00;100606.75;692220;28;915;-64
2023/09/28 00:17:59;;;;;;;7.28;3.33;;;;;;;18.10;100.00;100603.25;692905;28;876;-63
2023/09/28 00:18:21;;;;;;;4.80;3.30;;;;;;;18.12;100.00;100601.41;690944;28;1458;-63
2023/09/28 00:18:42;;;;;;;4.85;3.40;;;;;;;18.11;100.00;100600.56;691761;28;4618;-63
2023/09/28 00:19:03;;;;;;;4.83;3.50;;;;;;;18.11;100.00;100599.69;692298;28;964;-63
2023/09/28 00:19:27;;;;;;;6.20;3.53;;;;;;;18.08;100.00;100605.09;692657;28;828;-63
2023/09/28 00:19:47;;;;;;;4.53;3.40;;;;;;;18.09;100.00;100602.38;691874;28;868;-63
2023/09/28 00:20:13;;;;;;;4.57;3.70;;;;;;;18.07;100.00;100606.00;691004;28;1900;-63
2023/09/28 00:20:34;;;;;;;5.15;3.40;;;;;;;18.07;100.00;100617.47;690738;28;1251;-63
2023/09/28 00:20:54;;;;;;;5.30;3.40;;;;;;;18.08;100.00;100611.22;693020;28;959;-63
2023/09/28 00:21:15;;;;;;;5.05;3.50;;;;;;;18.08;100.00;100605.09;691062;28;1016;-63
2023/09/28 00:21:35;;;;;;;5.50;3.53;;;;;;;18.01;100.00;100615.91;689610;28;1280;-63
2023/09/28 00:21:56;;;;;;;5.80;3.80;;;;;;;18.00;100.00;100614.16;689180;28;4746;-63
2023/09/28 00:22:16;;;;;;;4.80;3.60;;;;;;;18.00;100.00;100615.97;688651;28;1779;-63
2023/09/28 00:22:36;;;;;;;5.07;3.60;;;;;;;17.99;100.00;100606.31;689855;28;924;-63
2023/09/28 00:22:57;;;;;;;5.00;3.43;;;;;;;18.10;100.00;100613.84;690063;28;782;-63
2023/09/28 00:23:18;;;;;;;5.63;3.35;;;;;;;18.10;100.00;100613.84;687140;28;1532;-63
2023/09/28 00:23:38;;;;;;;5.20;3.30;;;;;;;18.06;100.00;100614.88;692790;28;892;-63
2023/09/28 00:23:58;;;;;;;5.50;3.35;;;;;;;18.04;100.00;100621.06;692826;28;1019;-63
2023/09/28 00:24:19;;;;;;;4.87;3.40;;;;;;;18.07;100.00;100628.03;691418;28;2278;-63
2023/09/28 00:24:39;;;;;;;5.55;3.50;;;;;;;18.04;100.00;100621.06;690907;28;4469;-63
2023/09/28 00:25:00;;;;;;;6.47;3.70;;;;;;;18.02;100.00;100628.19;692115;28;1248;-63
2023/09/28 00:25:23;;;;;;;5.60;3.60;;;;;;;18.02;100.00;100630.84;691538;28;1165;-62
2023/09/28 00:25:49;;;;;;;4.53;3.20;;;;;;;17.96;100.00;100630.22;692431;28;932;-63
2023/09/28 00:26:09;;;;;;;5.53;3.42;;;;;;;17.90;100.00;100633.88;689475;28;2235;-62
2023/09/28 00:26:31;;;;;;;5.65;3.40;;;;;;;17.88;100.00;100641.88;692445;28;1306;-63
2023/09/28 00:26:52;;;;;;;5.00;3.50;;;;;;;17.87;100.00;100634.00;692499;28;900;-63
2023/09/28 00:27:12;;;;;;;5.03;3.60;;;;;;;17.86;100.00;100635.78;691610;28;1037;-63
2023/09/28 00:27:33;;;;;;;4.87;3.47;;;;;;;17.84;100.00;100634.97;688989;28;1652;-63
2023/09/28 00:27:55;;;;;;;5.30;3.55;;;;;;;17.85;100.00;100633.22;689113;28;4497;-63
2023/09/28 00:28:16;;;;;;;5.25;3.47;;;;;;;17.86;100.00;100637.56;688034;28;2052;-63
2023/09/28 00:28:36;;;;;;;4.60;3.40;;;;;;;17.85;100.00;100635.84;685587;28;1637;-63
2023/09/28 00:28:57;;;;;;;4.70;3.50;;;;;;;17.82;100.00;100644.75;682291;28;774;-63
2023/09/28 00:29:18;;;;;;;5.00;3.40;;;;;;;17.85;100.00;100644.63;682921;28;2292;-63
2023/09/28 00:29:39;;;;;;;5.13;3.35;;;;;;;17.92;100.00;100637.38;685187;28;2002;-62
2023/09/28 00:29:59;;;;;;;5.20;3.85;;;;;;;17.95;100.00;100636.41;685830;28;1383;-62
2023/09/28 00:30:22;;;;;;;5.40;3.53;;;;;;;17.92;100.00;100639.19;684970;28;1293;-63
2023/09/28 00:30:42;;;;;;;5.15;3.50;;;;;;;17.94;100.00;100639.97;689751;28;5501;-63
2023/09/28 00:31:05;;;;;;;4.73;3.37;;;;;;;17.91;100.00;100640.06;692439;28;1253;-63
2023/09/28 00:31:26;;;;;;;5.00;3.30;;;;;;;17.96;100.00;100639.00;691408;28;1268;-63
2023/09/28 00:31:46;;;;;;;4.53;3.07;;;;;;;17.88;100.00;100636.59;688437;28;1058;-63
2023/09/28 00:32:07;;;;;;;5.30;3.20;;;;;;;17.87;100.00;100641.94;687833;28;2305;-63
2023/09/28 00:32:28;;;;;;;4.43;3.13;;;;;;;17.84;100.00;100636.75;688756;28;1013;-63
2023/09/28 00:32:51;;;;;;;4.80;3.60;;;;;;;17.83;100.00;100641.19;688972;28;788;-63
2023/09/28 00:33:11;;;;;;;5.30;3.42;;;;;;;17.81;100.00;100639.53;687737;28;1555;-63
2023/09/28 00:33:31;;;;;;;5.97;3.30;;;;;;;17.78;100.00;100645.78;687676;28;896;-63
2023/09/28 00:33:52;;;;;;;5.35;3.20;;;;;;;17.76;100.00;100644.09;688683;28;4375;-63
2023/09/28 00:34:13;;;;;;;4.47;3.10;;;;;;;17.76;100.00;100644.94;691337;28;982;-63
2023/09/28 00:34:33;;;;;;;5.47;3.30;;;;;;;17.75;100.00;100645.00;692575;28;1332;-63
2023/09/28 00:34:53;;;;;;;5.90;3.40;;;;;;;17.74;100.00;100657.38;692307;28;931;-63
2023/09/28 00:35:15;;;;;;;5.83;3.40;;;;;;;17.74;100.00;100648.59;688340;28;1476;-63
2023/09/28 00:35:35;;;;;;;5.00;3.28;;;;;;;17.75;100.00;100645.91;689831;28;839;-63
2023/09/28 00:35:56;;;;;;;5.00;3.33;;;;;;;17.75;100.00;100653.81;688729;28;1269;-63
2023/09/28 00:36:17;;;;;;;4.65;3.10;;;;;;;17.73;100.00;100655.63;688091;28;1718;-63
2023/09/28 00:36:37;;;;;;;4.53;3.20;;;;;;;17.72;100.00;100658.34;687228;28;1272;-63
2023/09/28 00:36:58;;;;;;;4.80;3.50;;;;;;;17.69;100.00;100656.66;686733;28;4325;-63
2023/09/28 00:37:18;;;;;;;5.00;3.50;;;;;;;17.68;100.00;100661.09;684604;28;1180;-63
2023/09/28 00:37:39;;;;;;;4.53;3.33;;;;;;;17.68;100.00;100655.81;686252;28;1168;-63
2023/09/28 00:38:00;;;;;;;5.25;3.40;;;;;;;17.67;100.00;100663.81;686973;28;1125;-63
2023/09/28 00:38:20;;;;;;;5.37;3.57;;;;;;;17.64;100.00;100670.06;686065;28;1722;-63
2023/09/28 00:38:40;;;;;;;5.07;3.50;;;;;;;17.63;100.00;100663.03;689311;28;845;-63
2023/09/28 00:39:01;;;;;;;5.23;3.30;;;;;;;17.65;100.00;100670.91;690332;28;912;-63
2023/09/28 00:39:22;;;;;;;6.00;3.33;;;;;;;17.65;100.00;100666.50;690750;28;1276;-63
2023/09/28 00:39:42;;;;;;;5.10;3.10;;;;;;;17.66;100.00;100664.72;692550;28;4405;-63
2023/09/28 00:40:16;;;;;;;4.60;3.20;;;;;;;17.67;100.00;100669.09;691936;28;829;-63
2023/09/28 00:40:40;;;;;;;4.40;3.40;;;;;;;17.65;100.00;100669.16;690141;28;924;-63
2023/09/28 00:41:00;;;;;;;4.82;3.50;;;;;;;17.64;100.00;100664.75;689659;28;1382;-63
2023/09/28 00:41:20;;;;;;;5.60;3.40;;;;;;;17.62;100.00;100665.72;688125;28;1718;-59
2023/09/28 00:41:41;;;;;;;6.13;3.47;;;;;;;17.60;100.00;100663.13;685676;28;813;-63
2023/09/28 00:42:01;;;;;;;5.40;3.50;;;;;;;17.61;100.00;100661.34;684811;28;924;-63
2023/09/28 00:42:22;;;;;;;6.13;3.47;;;;;;;17.59;100.00;100661.41;685777;28;2167;-63
2023/09/28 00:42:43;;;;;;;4.90;3.47;;;;;;;17.57;100.00;100657.09;686039;28;4419;-63
2023/09/28 00:43:04;;;;;;;4.50;3.50;;;;;;;17.55;100.00;100659.78;687217;28;830;-63
2023/09/28 00:43:26;;;;;;;5.05;3.40;;;;;;;17.54;100.00;100660.69;685860;28;1733;-63
2023/09/28 00:43:46;;;;;;;5.32;3.60;;;;;;;17.55;100.00;100659.78;689646;28;1893;-63
2023/09/28 00:44:07;;;;;;;5.20;3.53;;;;;;;17.56;100.00;100656.22;687851;28;1023;-63
2023/09/28 00:44:27;;;;;;;4.65;3.67;;;;;;;17.57;100.00;100662.38;689925;28;1481;-63
2023/09/28 00:44:48;;;;;;;5.03;3.30;;;;;;;17.59;100.00;100658.75;692402;28;816;-63
2023/09/28 00:45:08;;;;;;;4.55;3.28;;;;;;;17.60;100.00;100657.84;691622;28;962;-63
2023/09/28 00:45:29;;;;;;;3.90;3.10;;;;;;;17.58;100.00;100659.66;689486;28;1625;-63
2023/09/28 00:45:49;;;;;;;4.40;3.20;;;;;;;17.57;100.00;100667.66;689333;28;4377;-63
2023/09/28 00:46:14;;;;;;;6.13;3.33;;;;;;;17.55;100.00;100658.94;687863;28;1418;-63
2023/09/28 00:46:34;;;;;;;6.68;3.30;;;;;;;17.52;100.00;100667.81;689409;28;861;-63
2023/09/28 00:46:55;;;;;;;4.88;3.47;;;;;;;17.50;100.00;100661.69;686897;28;889;-63
2023/09/28 00:47:15;;;;;;;4.70;3.37;;;;;;;17.49;100.00;100660.00;686660;28;1104;-63
2023/09/28 00:47:39;;;;;;;5.15;3.40;;;;;;;17.47;100.00;100656.53;689568;28;1251;-63
2023/09/28 00:48:04;;;;;;;4.85;3.40;;;;;;;17.46;100.00;100665.38;689687;28;1225;-63
2023/09/28 00:48:27;;;;;;;5.00;3.10;;;;;;;17.46;100.00;100660.97;687190;28;1058;-63
2023/09/28 00:48:58;;;;;;;5.43;3.50;;;;;;;17.45;100.00;100663.66;690398;28;4428;-63
2023/09/28 00:49:19;;;;;;;4.28;3.20;;;;;;;17.44;100.00;100664.56;690133;28;1274;-63
2023/09/28 00:49:42;;;;;;;4.93;3.55;;;;;;;17.41;100.00;100668.16;690779;28;1946;-63
2023/09/28 00:50:03;;;;;;;6.00;3.70;;;;;;;17.42;100.00;100667.25;692486;28;1007;-63
2023/09/28 00:50:26;;;;;;;5.35;3.38;;;;;;;17.43;100.00;100662.84;689065;28;1313;-63
2023/09/28 00:50:47;;;;;;;5.60;3.72;;;;;;;17.43;100.00;100665.47;689783;28;899;-63
2023/09/28 00:51:08;;;;;;;5.22;3.45;;;;;;;17.44;100.00;100672.50;686216;28;1575;-63
2023/09/28 00:51:28;;;;;;;4.80;3.47;;;;;;;17.44;100.00;100667.22;686430;28;1318;-63
2023/09/28 00:51:49;;;;;;;4.40;3.30;;;;;;;17.46;100.00;100668.00;685061;28;4395;-63
2023/09/28 00:52:11;;;;;;;4.57;3.33;;;;;;;17.45;100.00;100663.66;684158;28;1265;-63
2023/09/28 00:52:33;;;;;;;5.20;3.53;;;;;;;17.44;100.00;100662.78;684638;28;869;-63
2023/09/28 00:53:07;;;;;;;4.55;3.20;;;;;;;17.44;100.00;100668.06;684593;28;1406;-63
2023/09/28 00:53:28;;;;;;;4.75;3.30;;;;;;;17.43;100.00;100668.13;686495;28;1084;-63
2023/09/28 00:53:49;;;;;;;5.25;3.47;;;;;;;17.42;100.00;100658.47;685870;28;1590;-63
2023/09/28 00:54:11;;;;;;;4.57;3.33;;;;;;;17.42;100.00;100674.31;684607;28;901;-63
2023/09/28 00:54:31;;;;;;;5.57;3.58;;;;;;;17.41;100.00;100668.16;683797;28;1465;-63
2023/09/28 00:54:52;;;;;;;6.90;3.50;;;;;;;17.41;100.00;100667.31;681915;28;4337;-63
2023/09/28 00:55:15;;;;;;;4.68;3.42;;;;;;;17.38;100.00;100672.69;682642;28;929;-62
2023/09/28 00:55:37;;;;;;;4.93;3.63;;;;;;;17.36;100.00;100668.34;682795;28;1492;-62
2023/09/28 00:55:58;;;;;;;5.68;3.72;;;;;;;17.36;100.00;100670.09;682736;28;979;-62
2023/09/28 00:56:19;;;;;;;5.55;3.70;;;;;;;17.36;100.00;100665.69;685053;28;1131;-62
2023/09/28 00:56:40;;;;;;;4.75;3.35;;;;;;;17.38;100.00;100662.13;681833;28;913;-62
2023/09/28 00:57:00;;;;;;;4.50;3.40;;;;;;;17.35;100.00;100668.38;684545;28;917;-62
2023/09/28 00:57:20;;;;;;;5.20;3.33;;;;;;;17.36;100.00;100665.69;685144;28;960;-62
2023/09/28 00:57:46;;;;;;;5.20;3.53;;;;;;;17.36;100.00;100664.81;685594;28;5240;-62
2023/09/28 00:58:07;;;;;;;4.30;3.50;;;;;;;17.42;100.00;100666.38;685477;28;1120;-62
2023/09/28 00:58:27;;;;;;;4.57;3.35;;;;;;;17.40;100.00;100661.16;690845;28;1304;-62
2023/09/28 00:58:52;;;;;;;5.50;3.30;;;;;;;17.38;100.00;100657.72;692416;28;848;-61
2023/09/28 00:59:12;;;;;;;5.60;3.28;;;;;;;17.36;100.00;100665.69;688037;28;1060;-62
2023/09/28 00:59:32;;;;;;;5.03;3.50;;;;;;;17.38;100.00;100667.41;688896;28;1031;-62
2023/09/28 00:59:54;;;;;;;4.53;3.55;;;;;;;17.35;100.00;100663.09;686919;28;1738;-62
2023/09/28 01:00:18;;;;;;;5.05;3.30;;;;;;;17.40;100.00;100663.78;684647;28;1025;-62
2023/09/28 01:00:40;;;;;;;5.78;3.45;;;;;;;17.47;100.00;100656.53;682564;28;4422;-63
2023/09/28 01:01:00;;;;;;;5.10;3.40;;;;;;;17.50;100.00;100661.69;684915;28;985;-62
2023/09/28 01:01:21;;;;;;;4.93;3.28;;;;;;;17.53;100.00;100657.19;686065;28;1109;-62
2023/09/28 01:01:42;;;;;;;4.40;3.30;;;;;;;17.51;100.00;100655.50;687952;28;1348;-62
2023/09/28 01:02:02;;;;;;;5.25;3.28;;;;;;;17.45;100.00;100653.09;689811;28;905;-62
2023/09/28 01:02:23;;;;;;;5.72;3.45;;;;;;;17.42;100.00;100655.81;685983;28;1267;-62
2023/09/28 01:02:43;;;;;;;5.10;3.40;;;;;;;17.41;100.00;100654.97;690216;28;840;-62
2023/09/28 01:03:08;;;;;;;5.20;3.40;;;;;;;17.43;100.00;100645.22;685929;28;1596;-63
2023/09/28 01:03:29;;;;;;;5.03;3.63;;;;;;;17.48;100.00;100651.19;688319;28;984;-63
2023/09/28 01:03:50;;;;;;;5.03;3.53;;;;;;;17.45;100.00;100650.44;688123;28;4560;-62
2023/09/28 01:04:11;;;;;;;4.63;3.50;;;;;;;17.46;100.00;100650.38;687454;28;1111;-62
2023/09/28 01:04:32;;;;;;;5.00;3.50;;;;;;;17.49;100.00;100652.06;689541;28;1366;-62
2023/09/28 01:04:52;;;;;;;5.40;3.40;;;;;;;17.48;100.00;100650.34;688392;28;1252;-62
2023/09/28 01:05:13;;;;;;;4.90;3.33;;;;;;;17.47;100.00;100652.13;690837;28;1084;-62
2023/09/28 01:05:39;;;;;;;5.28;3.33;;;;;;;17.52;100.00;100655.47;691926;28;789;-62
2023/09/28 01:05:59;;;;;;;5.10;3.53;;;;;;;17.50;100.00;100653.78;690493;28;1015;-62
2023/09/28 01:06:19;;;;;;;4.93;3.40;;;;;;;17.52;100.00;100655.47;689502;28;1101;-62
2023/09/28 01:06:40;;;;;;;6.03;3.30;;;;;;;17.49;100.00;100660.84;687864;28;4441;-63
2023/09/28 01:07:02;;;;;;;5.32;3.40;;;;;;;17.45;100.00;100653.09;688838;28;904;-62
2023/09/28 01:07:30;;;;;;;5.47;3.50;;;;;;;17.39;100.00;100651.53;687590;28;1130;-62
2023/09/28 01:07:50;;;;;;;4.78;3.45;;;;;;;17.35;100.00;100650.75;687329;28;932;-62
2023/09/28 01:08:18;;;;;;;5.80;3.30;;;;;;;17.34;100.00;100656.09;688838;28;933;-62
2023/09/28 01:08:38;;;;;;;5.70;3.38;;;;;;;17.44;100.00;100646.91;690667;28;1426;-62
2023/09/28 01:08:59;;;;;;;5.97;3.60;;;;;;;17.41;100.00;100641.75;688106;28;955;-63
2023/09/28 01:09:24;;;;;;;6.47;3.70;;;;;;;17.38;100.00;100641.84;686908;28;1197;-63
2023/09/28 01:09:44;;;;;;;4.88;3.22;;;;;;;17.35;100.00;100640.19;685643;28;4747;-62
2023/09/28 01:10:09;;;;;;;4.77;3.47;;;;;;;17.40;100.00;100636.53;686668;28;1271;-62
2023/09/28 01:10:29;;;;;;;5.30;3.53;;;;;;;17.36;100.00;100639.28;686070;28;920;-62
2023/09/28 01:10:50;;;;;;;4.67;3.43;;;;;;;17.34;100.00;100641.09;689556;28;864;-62
2023/09/28 01:11:10;;;;;;;4.72;3.30;;;;;;;17.31;100.00;100646.47;688826;28;3831;-62
2023/09/28 01:11:31;;;;;;;5.53;3.30;;;;;;;17.31;100.00;100654.41;689960;28;1283;-62
2023/09/28 01:11:52;;;;;;;5.18;3.30;;;;;;;17.27;100.00;100650.13;688691;28;1221;-62
2023/09/28 01:12:12;;;;;;;5.20;3.28;;;;;;;17.26;100.00;100647.53;687591;28;1219;-62
2023/09/28 01:12:33;;;;;;;4.63;3.20;;;;;;;17.26;100.00;100652.84;688617;28;1035;-62
2023/09/28 01:12:55;;;;;;;4.13;3.13;;;;;;;17.28;100.00;100648.34;687455;28;4305;-62
2023/09/28 01:13:23;;;;;;;4.80;3.40;;;;;;;17.33;100.00;100647.31;685755;28;1398;-62
2023/09/28 01:13:44;;;;;;;4.85;3.28;;;;;;;17.34;100.00;100643.72;688875;28;821;-62
2023/09/28 01:14:05;;;;;;;4.55;3.40;;;;;;;17.49;100.00;100645.00;691097;28;959;-63
2023/09/28 01:14:28;;;;;;;4.93;3.37;;;;;;;17.49;100.00;100646.78;686113;28;1137;-63
2023/09/28 01:14:49;;;;;;;4.80;3.60;;;;;;;17.47;100.00;100651.25;686409;28;1314;-62
2023/09/28 01:15:11;;;;;;;5.40;3.60;;;;;;;17.42;100.00;100647.88;687074;28;1467;-62
2023/09/28 01:15:32;;;;;;;5.85;3.50;;;;;;;17.38;100.00;100652.44;689865;28;814;-62
2023/09/28 01:15:53;;;;;;;5.78;3.70;;;;;;;17.40;100.00;100644.44;689642;28;4525;-62
2023/09/28 01:16:14;;;;;;;6.70;3.33;;;;;;;17.45;100.00;100643.38;688659;28;1331;-62
2023/09/28 01:16:36;;;;;;;5.30;3.40;;;;;;;17.55;100.00;100646.56;692135;28;1425;-62
2023/09/28 01:16:58;;;;;;;4.72;3.65;;;;;;;17.53;100.00;100648.41;692318;28;1011;-62
2023/09/28 01:17:18;;;;;;;4.60;3.50;;;;;;;17.52;100.00;100641.38;687141;28;1102;-62
2023/09/28 01:17:40;;;;;;;4.77;3.50;;;;;;;17.51;100.00;100647.59;690011;28;864;-62
2023/09/28 01:18:01;;;;;;;4.63;3.50;;;;;;;17.46;100.00;100638.94;687068;28;1555;-62
2023/09/28 01:18:22;;;;;;;4.90;3.50;;;;;;;17.50;100.00;100640.56;685688;28;1124;-62
2023/09/28 01:18:43;;;;;;;4.43;3.20;;;;;;;17.56;100.00;100640.38;686580;28;4400;-62
2023/09/28 01:19:04;;;;;;;4.53;3.35;;;;;;;17.57;100.00;100631.53;687088;28;1684;-62
2023/09/28 01:19:24;;;;;;;5.15;3.28;;;;;;;17.56;100.00;100640.38;684755;28;1298;-62
2023/09/28 01:19:45;;;;;;;5.40;3.50;;;;;;;17.54;100.00;100636.91;684635;28;1593;-62
2023/09/28 01:20:34;;;;;;;6.03;3.43;;;;;;;17.51;100.00;100640.53;686461;28;1416;-62
2023/09/28 01:20:54;;;;;;;4.22;3.20;;;;;;;17.48;100.00;100630.06;687200;28;2027;-62
2023/09/28 01:21:15;;;;;;;4.50;3.30;;;;;;;17.47;100.00;100638.03;686545;28;1405;-62
2023/09/28 01:21:35;;;;;;;5.55;3.35;;;;;;;17.45;100.00;100631.94;690412;28;1221;-63
2023/09/28 01:21:56;;;;;;;5.60;3.53;;;;;;;17.44;100.00;100639.00;689468;28;4473;-62
2023/09/28 01:22:17;;;;;;;4.75;3.45;;;;;;;17.42;100.00;100638.19;687033;28;1088;-62
2023/09/28 01:22:37;;;;;;;6.00;3.58;;;;;;;17.42;100.00;100639.97;687176;28;1985;-62
2023/09/28 01:22:58;;;;;;;5.63;3.35;;;;;;;17.40;100.00;100641.81;688110;28;1343;-62
2023/09/28 01:23:19;;;;;;;4.93;3.30;;;;;;;17.37;100.00;100634.84;685375;28;1133;-63
2023/09/28 01:23:40;;;;;;;5.40;3.38;;;;;;;17.35;100.00;100634.03;687317;28;1131;-62
2023/09/28 01:24:02;;;;;;;5.13;3.60;;;;;;;17.36;100.00;100634.00;690512;28;1028;-62
2023/09/28 01:24:22;;;;;;;4.85;3.40;;;;;;;17.36;100.00;100636.63;688340;28;1120;-62
2023/09/28 01:24:44;;;;;;;5.22;3.50;;;;;;;17.36;100.00;100633.09;686284;28;4462;-62
2023/09/28 01:25:08;;;;;;;5.78;3.75;;;;;;;17.36;100.00;100631.34;685741;28;1347;-62
2023/09/28 01:25:29;;;;;;;5.15;3.30;;;;;;;17.35;100.00;100621.69;686691;28;1407;-62
2023/09/28 01:25:49;;;;;;;5.05;3.40;;;;;;;17.42;100.00;100622.34;687265;28;768;-62
2023/09/28 01:26:10;;;;;;;4.90;3.13;;;;;;;17.41;100.00;100633.81;686436;28;1489;-62
2023/09/28 01:26:31;;;;;;;5.07;3.20;;;;;;;17.41;100.00;100625.88;688038;28;1140;-62
2023/09/28 01:26:52;;;;;;;4.90;3.30;;;;;;;17.40;100.00;100629.44;687552;28;1643;-62
2023/09/28 01:27:12;;;;;;;4.93;3.40;;;;;;;17.38;100.00;100628.66;688150;28;1487;-62
2023/09/28 01:27:33;;;;;;;4.20;3.17;;;;;;;17.35;100.00;100631.41;686208;28;1296;-62
2023/09/28 01:27:54;;;;;;;4.90;3.50;;;;;;;17.34;100.00;100634.94;686744;28;4367;-62
2023/09/28 01:28:18;;;;;;;6.53;3.78;;;;;;;17.31;100.00;100624.50;686222;28;1085;-62
2023/09/28 01:28:38;;;;;;;5.57;3.35;;;;;;;17.28;100.00;100620.16;685186;28;1088;-63
2023/09/28 01:28:59;;;;;;;5.55;3.50;;;;;;;17.28;100.00;100620.16;688430;28;766;-62
2023/09/28 01:29:19;;;;;;;4.90;3.20;;;;;;;17.25;100.00;100622.03;686972;28;1366;-62
2023/09/28 01:29:40;;;;;;;4.22;3.28;;;;;;;17.23;100.00;100623.88;687227;28;5679;-62
2023/09/28 01:30:00;;;;;;;4.07;3.17;;;;;;;17.21;100.00;100623.94;688126;28;802;-62
2023/09/28 01:30:20;;;;;;;5.05;3.53;;;;;;;17.25;100.00;100628.19;688647;28;944;-62
2023/09/28 01:30:41;;;;;;;6.10;3.67;;;;;;;17.24;100.00;100623.81;685002;28;4526;-63
2023/09/28 01:31:02;;;;;;;5.95;3.58;;;;;;;17.25;100.00;100622.91;685177;28;965;-62
2023/09/28 01:31:22;;;;;;;5.70;3.50;;;;;;;17.29;100.00;100624.53;688825;28;1342;-62
2023/09/28 01:31:42;;;;;;;4.78;3.30;;;;;;;17.30;100.00;100622.75;690298;28;897;-62
2023/09/28 01:32:03;;;;;;;4.77;3.50;;;;;;;17.32;100.00;100627.06;689208;28;1332;-62
2023/09/28 01:32:23;;;;;;;5.85;3.40;;;;;;;17.33;100.00;100627.94;689499;28;951;-62
2023/09/28 01:32:44;;;;;;;5.50;3.40;;;;;;;17.35;100.00;100632.25;692587;28;1431;-62
2023/09/28 01:33:04;;;;;;;5.25;3.60;;;;;;;17.36;100.00;100630.47;692876;28;908;-62
2023/09/28 01:33:26;;;;;;;5.17;3.60;;;;;;;17.34;100.00;100634.94;690440;28;1200;-62
2023/09/28 01:33:46;;;;;;;6.05;3.50;;;;;;;17.34;100.00;100627.88;689118;28;4816;-62
2023/09/28 01:34:06;;;;;;;5.20;3.50;;;;;;;17.45;100.00;100631.94;689599;28;924;-60
2023/09/28 01:34:29;;;;;;;6.07;3.57;;;;;;;17.50;100.00;100627.34;688180;28;1258;-62
2023/09/28 01:34:49;;;;;;;5.97;3.20;;;;;;;17.47;100.00;100636.28;690155;28;848;-62
2023/09/28 01:35:13;;;;;;;5.40;3.50;;;;;;;17.53;100.00;100628.13;689814;28;1429;-62
2023/09/28 01:35:34;;;;;;;4.57;3.67;;;;;;;17.56;100.00;100628.94;691829;28;1272;-62
2023/09/28 01:35:54;;;;;;;4.53;3.40;;;;;;;17.55;100.00;100620.13;690400;28;1283;-62
2023/09/28 01:36:15;;;;;;;5.73;3.40;;;;;;;17.53;100.00;100630.75;687809;28;944;-62
2023/09/28 01:36:36;;;;;;;4.95;3.55;;;;;;;17.53;100.00;100628.13;690323;28;1566;-62
2023/09/28 01:36:57;;;;;;;5.57;3.50;;;;;;;17.54;100.00;100626.31;685653;28;4867;-62
2023/09/28 01:37:23;;;;;;;5.27;3.30;;;;;;;17.53;100.00;100629.91;688222;28;1243;-62
2023/09/28 01:38:00;;;;;;;4.75;3.28;;;;;;;17.50;100.00;100630.00;689454;28;1302;-62
2023/09/28 01:38:23;;;;;;;5.47;3.50;;;;;;;17.48;100.00;100631.84;686080;28;1040;-62
2023/09/28 01:38:57;;;;;;;4.93;3.55;;;;;;;17.44;100.00;100628.44;689013;28;932;-62
2023/09/28 01:39:17;;;;;;;5.28;3.20;;;;;;;17.52;100.00;100623.75;689503;28;1369;-62
2023/09/28 01:39:38;;;;;;;7.00;3.60;;;;;;;17.49;100.00;100628.28;689030;28;947;-62
2023/09/28 01:39:59;;;;;;;6.38;3.70;;;;;;;17.48;100.00;100635.34;689401;28;5230;-62
2023/09/28 01:40:19;;;;;;;5.80;3.60;;;;;;;17.47;100.00;100632.75;685856;28;1567;-62
2023/09/28 01:40:41;;;;;;;5.82;3.58;;;;;;;17.50;100.00;100630.00;686773;28;1099;-62
2023/09/28 01:41:02;;;;;;;6.05;3.42;;;;;;;17.46;100.00;100631.91;686680;28;1390;-62
2023/09/28 01:41:22;;;;;;;5.70;3.47;;;;;;;17.45;100.00;100626.66;686360;28;1058;-62
2023/09/28 01:41:42;;;;;;;7.15;3.40;;;;;;;17.43;100.00;100628.47;690523;28;778;-63
2023/09/28 01:42:04;;;;;;;5.47;3.47;;;;;;;17.40;100.00;100629.44;691461;28;797;-62
2023/09/28 01:42:25;;;;;;;4.97;3.40;;;;;;;17.38;100.00;100630.41;690551;28;1316;-62